createdAt,value
2022-10-10T00:00:40.239Z,0.00
2022-10-10T00:01:40.270Z,0.00
2022-10-10T00:02:40.215Z,0.00
2022-10-10T00:03:40.198Z,0.00
2022-10-10T00:04:40.203Z,0.00
2022-10-10T00:05:40.191Z,0.00
2022-10-10T00:06:40.181Z,0.00
2022-10-10T00:07:40.160Z,0.00
2022-10-10T00:08:40.152Z,0.00
2022-10-10T00:09:40.137Z,0.00
2022-10-10T00:10:40.153Z,0.00
2022-10-10T00:11:40.129Z,0.00
2022-10-10T00:12:40.107Z,0.00
2022-10-10T00:13:40.095Z,0.00
2022-10-10T00:14:40.091Z,0.00
2022-10-10T00:15:40.074Z,0.00
2022-10-10T00:16:40.075Z,0.00
2022-10-10T00:17:40.089Z,0.00
2022-10-10T00:18:40.040Z,0.00
2022-10-10T00:19:40.035Z,0.00
2022-10-10T00:20:40.025Z,0.00
2022-10-10T00:21:40.010Z,0.00
2022-10-10T00:22:40.001Z,0.00
2022-10-10T00:23:40.018Z,0.00
2022-10-10T00:24:39.975Z,0.00
2022-10-10T00:25:39.974Z,0.00
2022-10-10T00:26:39.953Z,0.00
2022-10-10T00:27:39.949Z,0.00
2022-10-10T00:28:39.958Z,0.00
2022-10-10T00:29:39.926Z,0.00
2022-10-10T00:30:39.911Z,0.00
2022-10-10T00:31:39.900Z,0.00
2022-10-10T00:32:39.885Z,0.00
2022-10-10T00:33:39.904Z,0.00
2022-10-10T00:34:39.859Z,0.00
2022-10-10T00:35:39.865Z,0.00
2022-10-10T00:36:39.849Z,0.00
2022-10-10T00:37:39.835Z,0.00
2022-10-10T00:38:39.827Z,0.00
2022-10-10T00:39:39.834Z,0.00
2022-10-10T00:40:39.800Z,0.00
2022-10-10T00:41:39.803Z,0.00
2022-10-10T00:42:39.777Z,0.00
2022-10-10T00:43:39.773Z,0.00
2022-10-10T00:44:39.769Z,0.00
2022-10-10T00:45:39.779Z,0.00
2022-10-10T00:46:39.729Z,0.00
2022-10-10T00:47:39.731Z,0.00
2022-10-10T00:48:39.718Z,0.00
2022-10-10T00:49:39.719Z,0.00
2022-10-10T00:50:39.696Z,0.00
2022-10-10T00:51:39.685Z,0.00
2022-10-10T00:52:39.669Z,0.00
2022-10-10T00:53:39.663Z,0.00
2022-10-10T00:54:39.642Z,0.00
2022-10-10T00:55:39.661Z,0.00
2022-10-10T00:56:39.629Z,0.00
2022-10-10T00:57:39.624Z,0.00
2022-10-10T00:58:39.604Z,0.00
2022-10-10T00:59:39.594Z,0.00
2022-10-10T01:00:39.661Z,0.00
2022-10-10T01:01:39.569Z,0.00
2022-10-10T01:02:39.563Z,0.00
2022-10-10T01:03:39.542Z,0.00
2022-10-10T01:04:44.375Z,0.00
2022-10-10T01:05:39.537Z,0.00
2022-10-10T01:06:39.523Z,0.00
2022-10-10T01:07:39.506Z,0.00
2022-10-10T01:08:39.493Z,0.00
2022-10-10T01:09:39.486Z,0.00
2022-10-10T01:10:39.470Z,0.00
2022-10-10T01:11:39.463Z,0.00
2022-10-10T01:12:39.442Z,0.00
2022-10-10T01:13:39.434Z,0.00
2022-10-10T01:14:39.429Z,0.00
2022-10-10T01:15:39.426Z,0.00
2022-10-10T01:16:39.415Z,0.00
2022-10-10T01:17:39.385Z,0.00
2022-10-10T01:18:39.379Z,0.00
2022-10-10T01:19:39.370Z,0.00
2022-10-10T01:20:39.364Z,0.00
2022-10-10T01:21:39.356Z,0.00
2022-10-10T01:22:39.336Z,0.00
2022-10-10T01:23:39.328Z,0.00
2022-10-10T01:24:39.344Z,0.00
2022-10-10T01:25:39.297Z,0.00
2022-10-10T01:26:39.288Z,0.00
2022-10-10T01:27:39.297Z,0.00
2022-10-10T01:28:39.295Z,0.00
2022-10-10T01:29:39.262Z,0.00
2022-10-10T01:30:39.876Z,0.00
2022-10-10T01:31:39.234Z,0.00
2022-10-10T01:32:39.240Z,0.00
2022-10-10T01:33:39.207Z,0.00
2022-10-10T01:34:39.209Z,0.00
2022-10-10T01:35:39.186Z,0.00
2022-10-10T01:36:39.182Z,0.00
2022-10-10T01:37:39.179Z,0.00
2022-10-10T01:38:39.164Z,0.00
2022-10-10T01:39:39.147Z,0.00
2022-10-10T01:40:39.142Z,0.00
2022-10-10T01:41:39.120Z,0.00
2022-10-10T01:42:39.114Z,0.00
2022-10-10T01:43:39.115Z,0.00
2022-10-10T01:44:39.102Z,0.00
2022-10-10T01:45:39.085Z,0.00
2022-10-10T01:46:39.074Z,0.00
2022-10-10T01:47:39.061Z,0.00
2022-10-10T01:48:39.065Z,0.00
2022-10-10T01:49:39.040Z,0.00
2022-10-10T01:50:39.041Z,0.00
2022-10-10T01:51:39.010Z,0.00
2022-10-10T01:52:40.016Z,0.00
2022-10-10T01:53:39.010Z,0.00
2022-10-10T01:54:38.992Z,0.00
2022-10-10T01:55:38.969Z,0.00
2022-10-10T01:56:38.970Z,0.00
2022-10-10T01:57:38.945Z,0.00
2022-10-10T01:58:38.951Z,0.00
2022-10-10T01:59:38.945Z,0.00
2022-10-10T02:00:38.985Z,0.00
2022-10-10T02:01:38.913Z,0.00
2022-10-10T02:02:38.892Z,0.00
2022-10-10T02:03:38.879Z,0.00
2022-10-10T02:04:38.897Z,0.00
2022-10-10T02:05:38.879Z,0.00
2022-10-10T02:06:38.859Z,0.00
2022-10-10T02:07:38.858Z,0.00
2022-10-10T02:08:38.841Z,0.00
2022-10-10T02:09:38.852Z,0.00
2022-10-10T02:10:38.846Z,0.00
2022-10-10T02:11:38.836Z,0.00
2022-10-10T02:12:38.786Z,0.00
2022-10-10T02:13:38.770Z,0.00
2022-10-10T02:14:38.775Z,0.00
2022-10-10T02:15:38.755Z,0.00
2022-10-10T02:16:38.741Z,0.00
2022-10-10T02:17:38.735Z,0.00
2022-10-10T02:18:38.732Z,0.00
2022-10-10T02:19:38.719Z,0.00
2022-10-10T02:20:38.719Z,0.00
2022-10-10T02:21:38.685Z,0.00
2022-10-10T02:22:38.689Z,0.00
2022-10-10T02:23:38.673Z,0.00
2022-10-10T02:24:38.666Z,0.00
2022-10-10T02:25:38.660Z,0.00
2022-10-10T02:26:38.637Z,0.00
2022-10-10T02:27:38.619Z,0.00
2022-10-10T02:28:38.669Z,0.00
2022-10-10T02:29:38.607Z,0.00
2022-10-10T02:30:38.604Z,0.00
2022-10-10T02:31:38.588Z,0.00
2022-10-10T02:32:38.577Z,0.00
2022-10-10T02:33:38.556Z,0.00
2022-10-10T02:34:38.559Z,0.00
2022-10-10T02:35:38.548Z,0.00
2022-10-10T02:36:38.532Z,0.00
2022-10-10T02:37:38.526Z,0.00
2022-10-10T02:38:38.523Z,0.00
2022-10-10T02:39:38.501Z,0.00
2022-10-10T02:40:38.492Z,0.00
2022-10-10T02:41:38.476Z,0.00
2022-10-10T02:42:38.469Z,0.00
2022-10-10T02:43:38.449Z,0.00
2022-10-10T02:44:38.453Z,0.00
2022-10-10T02:45:38.460Z,0.00
2022-10-10T02:46:38.432Z,0.00
2022-10-10T02:47:38.415Z,0.00
2022-10-10T02:48:38.405Z,0.00
2022-10-10T02:49:38.390Z,0.00
2022-10-10T02:50:38.390Z,0.00
2022-10-10T02:51:38.380Z,0.00
2022-10-10T02:52:38.361Z,0.00
2022-10-10T02:53:38.347Z,0.00
2022-10-10T02:54:38.359Z,0.00
2022-10-10T02:55:38.325Z,0.00
2022-10-10T02:56:38.329Z,0.00
2022-10-10T02:57:38.317Z,0.00
2022-10-10T02:58:38.301Z,0.00
2022-10-10T02:59:38.277Z,0.00
2022-10-10T03:00:38.273Z,0.00
2022-10-10T03:01:38.265Z,0.00
2022-10-10T03:02:38.263Z,0.00
2022-10-10T03:03:38.256Z,0.00
2022-10-10T03:04:38.234Z,0.00
2022-10-10T03:05:38.222Z,0.00
2022-10-10T03:06:38.219Z,0.00
2022-10-10T03:07:38.207Z,0.00
2022-10-10T03:08:38.209Z,0.00
2022-10-10T03:09:38.180Z,0.00
2022-10-10T03:10:38.169Z,0.00
2022-10-10T03:11:38.160Z,0.00
2022-10-10T03:12:38.148Z,0.00
2022-10-10T03:13:38.146Z,0.00
2022-10-10T03:14:38.136Z,0.00
2022-10-10T03:15:38.125Z,0.00
2022-10-10T03:16:38.102Z,0.00
2022-10-10T03:17:38.129Z,0.00
2022-10-10T03:18:38.097Z,0.00
2022-10-10T03:19:38.075Z,0.00
2022-10-10T03:20:38.064Z,0.00
2022-10-10T03:21:38.050Z,0.00
2022-10-10T03:22:38.048Z,0.00
2022-10-10T03:23:38.033Z,0.00
2022-10-10T03:24:38.027Z,0.00
2022-10-10T03:25:38.006Z,0.00
2022-10-10T03:26:38.008Z,0.00
2022-10-10T03:27:37.985Z,0.00
2022-10-10T03:28:38.128Z,0.00
2022-10-10T03:29:37.990Z,0.00
2022-10-10T03:30:37.962Z,0.00
2022-10-10T03:31:37.948Z,0.00
2022-10-10T03:32:37.935Z,0.00
2022-10-10T03:33:37.924Z,0.00
2022-10-10T03:34:37.929Z,0.00
2022-10-10T03:35:37.908Z,0.00
2022-10-10T03:36:37.892Z,0.00
2022-10-10T03:37:37.879Z,0.00
2022-10-10T03:38:37.878Z,0.00
2022-10-10T03:39:37.857Z,0.00
2022-10-10T03:40:37.856Z,0.00
2022-10-10T03:41:37.831Z,0.00
2022-10-10T03:42:37.828Z,0.00
2022-10-10T03:43:37.818Z,0.00
2022-10-10T03:44:37.807Z,0.00
2022-10-10T03:45:37.797Z,0.00
2022-10-10T03:46:37.784Z,0.00
2022-10-10T03:47:37.770Z,0.00
2022-10-10T03:48:37.771Z,0.00
2022-10-10T03:49:37.755Z,0.00
2022-10-10T03:50:37.751Z,0.00
2022-10-10T03:51:37.726Z,0.00
2022-10-10T03:52:37.731Z,0.00
2022-10-10T03:53:37.708Z,0.00
2022-10-10T03:54:37.696Z,0.00
2022-10-10T03:55:37.724Z,0.00
2022-10-10T03:56:37.684Z,0.00
2022-10-10T03:57:37.666Z,0.00
2022-10-10T03:58:37.656Z,0.00
2022-10-10T03:59:37.700Z,0.00
2022-10-10T04:00:37.640Z,0.00
2022-10-10T04:01:37.689Z,0.00
2022-10-10T04:02:37.623Z,0.00
2022-10-10T04:03:37.627Z,0.00
2022-10-10T04:04:37.596Z,0.00
2022-10-10T04:05:37.577Z,0.00
2022-10-10T04:06:37.570Z,0.00
2022-10-10T04:07:37.571Z,0.00
2022-10-10T04:08:37.558Z,0.00
2022-10-10T04:09:37.618Z,0.00
2022-10-10T04:10:37.522Z,0.00
2022-10-10T04:11:37.505Z,0.00
2022-10-10T04:12:37.532Z,0.00
2022-10-10T04:13:37.499Z,0.00
2022-10-10T04:14:37.484Z,0.00
2022-10-10T04:15:37.467Z,0.00
2022-10-10T04:16:37.457Z,0.00
2022-10-10T04:17:37.455Z,0.00
2022-10-10T04:18:37.445Z,0.00
2022-10-10T04:19:37.428Z,0.00
2022-10-10T04:20:37.428Z,0.00
2022-10-10T04:21:37.403Z,0.00
2022-10-10T04:22:37.393Z,0.00
2022-10-10T04:23:37.402Z,0.00
2022-10-10T04:24:37.379Z,0.00
2022-10-10T04:25:37.372Z,0.00
2022-10-10T04:26:37.374Z,0.00
2022-10-10T04:27:37.344Z,0.00
2022-10-10T04:28:37.405Z,0.00
2022-10-10T04:29:37.320Z,0.00
2022-10-10T04:30:37.311Z,0.00
2022-10-10T04:31:37.297Z,0.00
2022-10-10T04:32:37.304Z,0.00
2022-10-10T04:33:37.280Z,0.00
2022-10-10T04:34:37.275Z,0.00
2022-10-10T04:35:37.493Z,0.00
2022-10-10T04:36:37.243Z,0.00
2022-10-10T04:37:37.235Z,0.00
2022-10-10T04:38:37.235Z,0.00
2022-10-10T04:39:37.215Z,0.00
2022-10-10T04:40:37.207Z,0.00
2022-10-10T04:41:37.189Z,0.00
2022-10-10T04:42:37.188Z,0.00
2022-10-10T04:43:37.169Z,0.00
2022-10-10T04:44:37.181Z,0.00
2022-10-10T04:45:37.851Z,0.00
2022-10-10T04:46:37.152Z,0.00
2022-10-10T04:47:37.130Z,0.00
2022-10-10T04:48:37.130Z,0.00
2022-10-10T04:49:37.103Z,0.00
2022-10-10T04:50:37.116Z,0.00
2022-10-10T04:51:37.083Z,0.00
2022-10-10T04:52:37.067Z,0.00
2022-10-10T04:53:37.058Z,0.00
2022-10-10T04:54:37.056Z,0.00
2022-10-10T04:55:37.056Z,0.00
2022-10-10T04:56:37.025Z,0.00
2022-10-10T04:57:37.018Z,0.00
2022-10-10T04:58:36.994Z,0.00
2022-10-10T04:59:36.998Z,0.00
2022-10-10T05:00:36.989Z,0.00
2022-10-10T05:01:37.017Z,0.00
2022-10-10T05:02:36.964Z,0.00
2022-10-10T05:03:36.944Z,0.00
2022-10-10T05:04:36.935Z,0.00
2022-10-10T05:05:37.064Z,0.00
2022-10-10T05:06:36.941Z,0.00
2022-10-10T05:07:36.909Z,0.00
2022-10-10T05:08:36.891Z,0.00
2022-10-10T05:09:36.884Z,0.00
2022-10-10T05:10:36.879Z,0.00
2022-10-10T05:11:36.898Z,0.00
2022-10-10T05:12:36.857Z,0.00
2022-10-10T05:13:36.863Z,0.00
2022-10-10T05:14:36.827Z,0.00
2022-10-10T05:15:36.822Z,0.00
2022-10-10T05:16:36.815Z,0.00
2022-10-10T05:17:36.787Z,0.00
2022-10-10T05:18:36.778Z,0.00
2022-10-10T05:19:36.811Z,0.00
2022-10-10T05:20:36.844Z,0.00
2022-10-10T05:21:36.859Z,0.00
2022-10-10T05:22:36.789Z,0.00
2022-10-10T05:23:36.757Z,0.00
2022-10-10T05:24:36.729Z,0.00
2022-10-10T05:25:36.706Z,0.00
2022-10-10T05:26:42.268Z,0.00
2022-10-10T05:27:36.795Z,0.00
2022-10-10T05:28:36.832Z,0.00
2022-10-10T05:29:36.746Z,0.00
2022-10-10T05:30:36.755Z,0.00
2022-10-10T05:31:36.724Z,0.00
2022-10-10T05:32:36.622Z,0.00
2022-10-10T05:33:36.642Z,0.00
2022-10-10T05:34:36.690Z,0.00
2022-10-10T05:35:36.657Z,0.00
2022-10-10T05:36:36.780Z,0.00
2022-10-10T05:37:36.663Z,0.00
2022-10-10T05:38:36.767Z,0.00
2022-10-10T05:39:36.594Z,0.00
2022-10-10T05:40:36.604Z,0.00
2022-10-10T05:41:36.562Z,0.00
2022-10-10T05:42:36.528Z,0.00
2022-10-10T05:43:36.525Z,0.00
2022-10-10T05:44:36.519Z,0.00
2022-10-10T05:45:36.701Z,0.00
2022-10-10T05:46:36.568Z,0.00
2022-10-10T05:47:36.520Z,0.00
2022-10-10T05:48:36.466Z,0.00
2022-10-10T05:49:36.628Z,0.00
2022-10-10T05:50:36.447Z,0.00
2022-10-10T05:51:36.427Z,0.00
2022-10-10T05:52:36.442Z,5.62
2022-10-10T05:53:36.409Z,5.62
2022-10-10T05:54:36.395Z,5.62
2022-10-10T05:55:36.392Z,5.62
2022-10-10T05:56:36.380Z,5.62
2022-10-10T05:57:36.362Z,5.62
2022-10-10T05:58:36.366Z,5.62
2022-10-10T05:59:36.339Z,5.62
2022-10-10T06:00:36.333Z,5.62
2022-10-10T06:01:36.310Z,5.62
2022-10-10T06:02:36.397Z,5.62
2022-10-10T06:03:36.301Z,5.62
2022-10-10T06:04:36.280Z,5.62
2022-10-10T06:05:36.278Z,5.62
2022-10-10T06:06:36.259Z,5.62
2022-10-10T06:07:59.869Z,5.62
2022-10-10T06:08:36.235Z,5.62
2022-10-10T06:09:36.271Z,5.62
2022-10-10T06:10:36.235Z,5.62
2022-10-10T06:11:36.216Z,5.62
2022-10-10T06:12:36.193Z,5.62
2022-10-10T06:13:36.197Z,5.62
2022-10-10T06:14:36.167Z,5.62
2022-10-10T06:15:36.164Z,5.62
2022-10-10T06:16:36.177Z,5.62
2022-10-10T06:17:36.144Z,5.62
2022-10-10T06:18:36.127Z,5.62
2022-10-10T06:19:36.135Z,5.62
2022-10-10T06:20:36.113Z,5.62
2022-10-10T06:21:36.139Z,5.62
2022-10-10T06:22:36.088Z,5.62
2022-10-10T06:23:36.082Z,5.62
2022-10-10T06:24:36.060Z,5.62
2022-10-10T06:25:40.498Z,5.62
2022-10-10T06:26:36.046Z,5.62
2022-10-10T06:27:36.048Z,5.62
2022-10-10T06:28:36.057Z,5.62
2022-10-10T06:29:36.008Z,5.62
2022-10-10T06:30:36.013Z,5.62
2022-10-10T06:31:35.991Z,5.62
2022-10-10T06:32:35.988Z,11.25
2022-10-10T06:33:35.976Z,11.25
2022-10-10T06:34:35.948Z,11.25
2022-10-10T06:35:35.946Z,11.25
2022-10-10T06:36:35.941Z,11.25
2022-10-10T06:37:35.943Z,11.25
2022-10-10T06:38:35.935Z,11.25
2022-10-10T06:39:35.923Z,11.25
2022-10-10T06:40:35.893Z,11.25
2022-10-10T06:41:35.883Z,16.88
2022-10-10T06:42:35.876Z,16.88
2022-10-10T06:43:35.877Z,16.88
2022-10-10T06:44:35.845Z,16.88
2022-10-10T06:45:35.847Z,16.88
2022-10-10T06:46:35.833Z,22.50
2022-10-10T06:47:35.817Z,22.50
2022-10-10T06:48:35.813Z,22.50
2022-10-10T06:49:35.799Z,16.88
2022-10-10T06:50:35.781Z,16.88
2022-10-10T06:51:35.778Z,16.88
2022-10-10T06:52:35.822Z,16.88
2022-10-10T06:53:35.769Z,16.88
2022-10-10T06:54:35.745Z,16.88
2022-10-10T06:55:35.731Z,16.88
2022-10-10T06:56:35.716Z,16.88
2022-10-10T06:57:35.733Z,16.88
2022-10-10T06:58:35.738Z,11.25
2022-10-10T06:59:35.721Z,5.62
2022-10-10T07:00:36.064Z,11.25
2022-10-10T07:01:35.819Z,5.62
2022-10-10T07:02:35.782Z,11.25
2022-10-10T07:03:35.661Z,11.25
2022-10-10T07:04:35.643Z,16.88
2022-10-10T07:05:35.634Z,11.25
2022-10-10T07:06:35.615Z,11.25
2022-10-10T07:07:35.635Z,11.25
2022-10-10T07:08:35.600Z,11.25
2022-10-10T07:09:35.612Z,16.88
2022-10-10T07:10:35.583Z,16.88
2022-10-10T07:11:35.572Z,11.25
2022-10-10T07:12:42.075Z,11.25
2022-10-10T07:13:35.551Z,11.25
2022-10-10T07:14:35.537Z,11.25
2022-10-10T07:15:35.527Z,16.88
2022-10-10T07:16:35.573Z,11.25
2022-10-10T07:17:35.504Z,11.25
2022-10-10T07:18:35.492Z,11.25
2022-10-10T07:19:35.503Z,11.25
2022-10-10T07:20:35.478Z,11.25
2022-10-10T07:21:35.544Z,11.25
2022-10-10T07:22:35.449Z,11.25
2022-10-10T07:23:35.433Z,11.25
2022-10-10T07:24:35.421Z,11.25
2022-10-10T07:25:35.409Z,11.25
2022-10-10T07:26:35.433Z,11.25
2022-10-10T07:27:35.391Z,11.25
2022-10-10T07:28:35.420Z,11.25
2022-10-10T07:29:35.419Z,11.25
2022-10-10T07:30:35.366Z,11.25
2022-10-10T07:31:35.356Z,22.50
2022-10-10T07:32:35.355Z,22.50
2022-10-10T07:33:35.329Z,16.88
2022-10-10T07:34:35.309Z,16.88
2022-10-10T07:35:35.304Z,22.50
2022-10-10T07:36:35.304Z,22.50
2022-10-10T07:37:35.313Z,22.50
2022-10-10T07:38:35.267Z,11.25
2022-10-10T07:39:35.257Z,22.50
2022-10-10T07:40:35.250Z,22.50
2022-10-10T07:41:35.240Z,11.25
2022-10-10T07:42:35.244Z,11.25
2022-10-10T07:43:35.222Z,11.25
2022-10-10T07:44:35.203Z,11.25
2022-10-10T07:45:35.199Z,11.25
2022-10-10T07:46:35.185Z,11.25
2022-10-10T07:47:35.184Z,11.25
2022-10-10T07:48:35.180Z,11.25
2022-10-10T07:49:35.152Z,11.25
2022-10-10T07:50:35.133Z,16.88
2022-10-10T07:51:35.122Z,16.88
2022-10-10T07:52:35.123Z,16.88
2022-10-10T07:53:35.121Z,16.88
2022-10-10T07:54:35.194Z,11.25
2022-10-10T07:55:35.091Z,11.25
2022-10-10T07:56:35.071Z,11.25
2022-10-10T07:57:35.176Z,11.25
2022-10-10T07:58:35.086Z,11.25
2022-10-10T07:59:35.053Z,11.25
2022-10-10T08:00:35.150Z,11.25
2022-10-10T08:01:35.069Z,11.25
2022-10-10T08:02:35.009Z,11.25
2022-10-10T08:03:35.027Z,11.25
2022-10-10T08:04:34.992Z,11.25
2022-10-10T08:05:34.995Z,11.25
2022-10-10T08:06:34.996Z,11.25
2022-10-10T08:07:34.948Z,11.25
2022-10-10T08:08:37.818Z,11.25
2022-10-10T08:09:34.939Z,11.25
2022-10-10T08:10:34.918Z,22.50
2022-10-10T08:11:34.910Z,16.88
2022-10-10T08:12:34.890Z,22.50
2022-10-10T08:13:35.557Z,22.50
2022-10-10T08:14:34.886Z,22.50
2022-10-10T08:15:34.880Z,22.50
2022-10-10T08:16:34.862Z,22.50
2022-10-10T08:17:34.833Z,22.50
2022-10-10T08:18:34.835Z,22.50
2022-10-10T08:19:34.850Z,22.50
2022-10-10T08:20:34.815Z,22.50
2022-10-10T08:21:34.797Z,22.50
2022-10-10T08:22:34.782Z,22.50
2022-10-10T08:23:34.778Z,22.50
2022-10-10T08:24:34.786Z,22.50
2022-10-10T08:25:34.762Z,22.50
2022-10-10T08:26:34.754Z,22.50
2022-10-10T08:27:34.732Z,22.50
2022-10-10T08:28:34.830Z,22.50
2022-10-10T08:29:34.708Z,22.50
2022-10-10T08:30:34.716Z,22.50
2022-10-10T08:31:34.685Z,22.50
2022-10-10T08:32:34.675Z,22.50
2022-10-10T08:33:34.666Z,22.50
2022-10-10T08:34:34.655Z,22.50
2022-10-10T08:35:34.658Z,22.50
2022-10-10T08:36:34.646Z,22.50
2022-10-10T08:37:37.371Z,22.50
2022-10-10T08:38:34.620Z,22.50
2022-10-10T08:39:34.644Z,22.50
2022-10-10T08:40:34.592Z,22.50
2022-10-10T08:41:34.586Z,22.50
2022-10-10T08:42:34.567Z,22.50
2022-10-10T08:43:34.564Z,22.50
2022-10-10T08:44:34.551Z,22.50
2022-10-10T08:45:34.529Z,22.50
2022-10-10T08:46:34.543Z,22.50
2022-10-10T08:47:34.534Z,22.50
2022-10-10T08:48:34.506Z,22.50
2022-10-10T08:49:34.493Z,16.88
2022-10-10T08:50:34.489Z,22.50
2022-10-10T08:51:34.476Z,22.50
2022-10-10T08:52:34.477Z,22.50
2022-10-10T08:53:34.446Z,22.50
2022-10-10T08:54:34.458Z,22.50
2022-10-10T08:55:34.423Z,22.50
2022-10-10T08:56:34.428Z,22.50
2022-10-10T08:57:34.421Z,22.50
2022-10-10T08:58:34.397Z,22.50
2022-10-10T08:59:34.386Z,22.50
2022-10-10T09:00:34.406Z,22.50
2022-10-10T09:01:34.406Z,22.50
2022-10-10T09:02:50.163Z,22.50
2022-10-10T09:03:34.361Z,22.50
2022-10-10T09:04:34.337Z,22.50
2022-10-10T09:05:34.492Z,28.12
2022-10-10T09:06:34.330Z,28.12
2022-10-10T09:07:34.311Z,28.12
2022-10-10T09:08:34.305Z,28.12
2022-10-10T09:09:34.277Z,33.75
2022-10-10T09:10:34.266Z,33.75
2022-10-10T09:11:34.255Z,33.75
2022-10-10T09:12:34.265Z,33.75
2022-10-10T09:13:34.241Z,33.75
2022-10-10T09:14:34.230Z,33.75
2022-10-10T09:15:34.207Z,28.12
2022-10-10T09:16:34.213Z,28.12
2022-10-10T09:18:34.179Z,28.12
2022-10-10T09:19:34.176Z,28.12
2022-10-10T09:20:34.157Z,28.12
2022-10-10T09:21:34.145Z,28.12
2022-10-10T09:22:34.164Z,28.12
2022-10-10T09:23:34.146Z,28.12
2022-10-10T09:24:34.135Z,28.12
2022-10-10T09:25:34.102Z,33.75
2022-10-10T09:26:34.096Z,33.75
2022-10-10T09:27:34.131Z,33.75
2022-10-10T09:28:34.136Z,39.38
2022-10-10T09:29:34.067Z,39.38
2022-10-10T09:30:34.067Z,39.38
2022-10-10T09:31:34.052Z,39.38
2022-10-10T09:32:34.027Z,39.38
2022-10-10T09:33:34.016Z,45.00
2022-10-10T09:34:34.005Z,45.00
2022-10-10T09:35:34.009Z,45.00
2022-10-10T09:36:33.996Z,45.00
2022-10-10T09:37:46.963Z,45.00
2022-10-10T09:38:33.986Z,45.00
2022-10-10T09:39:33.961Z,45.00
2022-10-10T09:40:33.974Z,45.00
2022-10-10T09:41:33.927Z,45.00
2022-10-10T09:42:33.928Z,45.00
2022-10-10T09:43:33.902Z,45.00
2022-10-10T09:44:33.900Z,45.00
2022-10-10T09:45:33.899Z,45.00
2022-10-10T09:46:33.874Z,45.00
2022-10-10T09:47:33.931Z,45.00
2022-10-10T09:48:33.869Z,45.00
2022-10-10T09:49:33.840Z,45.00
2022-10-10T09:50:33.843Z,45.00
2022-10-10T09:51:33.830Z,45.00
2022-10-10T09:52:33.813Z,45.00
2022-10-10T09:53:33.800Z,39.38
2022-10-10T09:54:33.787Z,45.00
2022-10-10T09:55:33.788Z,45.00
2022-10-10T09:56:33.771Z,39.38
2022-10-10T09:57:33.801Z,33.75
2022-10-10T09:58:33.750Z,33.75
2022-10-10T09:59:33.735Z,33.75
2022-10-10T10:00:33.747Z,28.12
2022-10-10T10:01:33.828Z,28.12
2022-10-10T10:02:33.709Z,28.12
2022-10-10T10:03:33.702Z,28.12
2022-10-10T10:04:33.740Z,28.12
2022-10-10T10:05:33.685Z,28.12
2022-10-10T10:06:33.684Z,28.12
2022-10-10T10:07:33.662Z,28.12
2022-10-10T10:08:33.648Z,28.12
2022-10-10T10:09:33.622Z,28.12
2022-10-10T10:10:33.635Z,28.12
2022-10-10T10:11:33.609Z,28.12
2022-10-10T10:12:33.622Z,28.12
2022-10-10T10:13:33.579Z,28.12
2022-10-10T10:14:33.570Z,28.12
2022-10-10T10:15:33.570Z,28.12
2022-10-10T10:16:33.547Z,28.12
2022-10-10T10:17:33.546Z,28.12
2022-10-10T10:18:33.534Z,28.12
2022-10-10T10:19:33.518Z,22.50
2022-10-10T10:20:33.511Z,28.12
2022-10-10T10:21:33.497Z,28.12
2022-10-10T10:22:33.523Z,33.75
2022-10-10T10:23:33.494Z,33.75
2022-10-10T10:24:33.460Z,33.75
2022-10-10T10:25:33.462Z,39.38
2022-10-10T10:26:33.448Z,39.38
2022-10-10T10:27:33.444Z,33.75
2022-10-10T10:28:33.496Z,39.38
2022-10-10T10:29:33.413Z,39.38
2022-10-10T10:30:33.404Z,39.38
2022-10-10T10:31:33.382Z,39.38
2022-10-10T10:32:33.380Z,39.38
2022-10-10T10:33:33.376Z,45.00
2022-10-10T10:34:33.445Z,45.00
2022-10-10T10:35:33.342Z,39.38
2022-10-10T10:36:33.355Z,39.38
2022-10-10T10:37:33.320Z,39.38
2022-10-10T10:38:33.317Z,39.38
2022-10-10T10:39:33.314Z,39.38
2022-10-10T10:40:33.295Z,39.38
2022-10-10T10:41:33.276Z,39.38
2022-10-10T10:42:33.328Z,39.38
2022-10-10T10:43:33.255Z,39.38
2022-10-10T10:44:33.263Z,45.00
2022-10-10T10:45:33.237Z,45.00
2022-10-10T10:46:33.223Z,67.50
2022-10-10T10:47:33.255Z,67.50
2022-10-10T10:48:33.223Z,67.50
2022-10-10T10:49:33.197Z,67.50
2022-10-10T10:50:33.197Z,73.12
2022-10-10T10:51:33.165Z,78.75
2022-10-10T10:52:33.162Z,78.75
2022-10-10T10:53:33.143Z,78.75
2022-10-10T10:54:35.291Z,84.38
2022-10-10T10:55:33.296Z,90.00
2022-10-10T10:57:40.573Z,95.62
2022-10-10T10:59:15.979Z,106.88
2022-10-10T11:00:33.005Z,112.50
2022-10-10T11:01:33.697Z,112.50
2022-10-10T11:01:59.171Z,123.75
2022-10-10T11:02:54.898Z,129.38
2022-10-10T11:05:18.961Z,135.00
2022-10-10T11:05:36.882Z,140.62
2022-10-10T11:05:45.884Z,146.25
2022-10-10T11:06:53.886Z,146.25
2022-10-10T11:07:39.747Z,151.88
2022-10-10T11:08:39.666Z,146.25
2022-10-10T11:09:55.149Z,135.00
2022-10-10T11:10:39.654Z,135.00
2022-10-10T11:11:39.624Z,135.00
2022-10-10T11:12:39.627Z,135.00
2022-10-10T11:13:39.605Z,140.62
2022-10-10T11:14:39.598Z,140.62
2022-10-10T11:16:06.018Z,146.25
2022-10-10T11:16:54.945Z,146.25
2022-10-10T11:17:39.570Z,146.25
2022-10-10T11:18:39.559Z,146.25
2022-10-10T11:19:39.552Z,151.88
2022-10-10T11:20:39.551Z,157.50
2022-10-10T11:21:39.528Z,163.12
2022-10-10T11:22:39.506Z,168.75
2022-10-10T11:23:39.503Z,191.25
2022-10-10T11:24:39.506Z,202.50
2022-10-10T11:25:39.489Z,208.12
2022-10-10T11:26:39.499Z,208.12
2022-10-10T11:27:39.454Z,202.50
2022-10-10T11:28:39.546Z,123.75
2022-10-10T11:29:39.435Z,123.75
2022-10-10T11:30:39.425Z,185.62
2022-10-10T11:31:39.419Z,163.12
2022-10-10T11:32:39.410Z,163.12
2022-10-10T11:33:39.401Z,185.62
2022-10-10T11:34:39.387Z,185.62
2022-10-10T11:35:39.370Z,185.62
2022-10-10T11:36:39.357Z,191.25
2022-10-10T11:37:39.363Z,191.25
2022-10-10T11:38:39.338Z,191.25
2022-10-10T11:39:39.323Z,191.25
2022-10-10T11:40:39.326Z,191.25
2022-10-10T11:41:39.306Z,191.25
2022-10-10T11:42:39.313Z,174.38
2022-10-10T11:43:39.286Z,163.12
2022-10-10T11:44:39.269Z,157.50
2022-10-10T11:45:39.262Z,135.00
2022-10-10T11:46:39.257Z,129.38
2022-10-10T11:47:39.250Z,106.88
2022-10-10T11:48:39.226Z,95.62
2022-10-10T11:49:39.228Z,90.00
2022-10-10T11:50:39.207Z,84.38
2022-10-10T11:51:39.219Z,78.75
2022-10-10T11:52:39.213Z,67.50
2022-10-10T11:53:39.189Z,61.88
2022-10-10T11:54:39.166Z,61.88
2022-10-10T11:55:39.156Z,56.25
2022-10-10T11:56:39.150Z,50.62
2022-10-10T11:57:39.134Z,50.62
2022-10-10T11:58:39.140Z,45.00
2022-10-10T11:59:39.193Z,45.00
2022-10-10T12:00:39.106Z,39.38
2022-10-10T12:01:39.092Z,39.38
2022-10-10T12:02:39.101Z,45.00
2022-10-10T12:03:39.069Z,45.00
2022-10-10T12:04:39.072Z,45.00
2022-10-10T12:05:39.046Z,45.00
2022-10-10T12:06:39.034Z,45.00
2022-10-10T12:07:39.022Z,45.00
2022-10-10T12:08:39.019Z,50.62
2022-10-10T12:09:39.065Z,50.62
2022-10-10T12:10:38.993Z,50.62
2022-10-10T12:11:38.986Z,45.00
2022-10-10T12:12:38.970Z,45.00
2022-10-10T12:13:38.953Z,45.00
2022-10-10T12:14:38.957Z,45.00
2022-10-10T12:15:42.803Z,45.00
2022-10-10T12:16:38.937Z,50.62
2022-10-10T12:17:38.919Z,45.00
2022-10-10T12:18:38.904Z,45.00
2022-10-10T12:19:38.988Z,45.00
2022-10-10T12:20:38.881Z,45.00
2022-10-10T12:21:38.869Z,45.00
2022-10-10T12:22:38.853Z,45.00
2022-10-10T12:23:38.838Z,45.00
2022-10-10T12:24:42.788Z,45.00
2022-10-10T12:25:38.819Z,45.00
2022-10-10T12:26:38.819Z,45.00
2022-10-10T12:27:38.814Z,45.00
2022-10-10T12:28:38.892Z,45.00
2022-10-10T12:29:38.855Z,45.00
2022-10-10T12:30:38.771Z,45.00
2022-10-10T12:31:38.760Z,45.00
2022-10-10T12:32:38.785Z,50.62
2022-10-10T12:33:38.735Z,50.62
2022-10-10T12:34:38.815Z,56.25
2022-10-10T12:35:38.733Z,61.88
2022-10-10T12:36:38.701Z,67.50
2022-10-10T12:37:38.695Z,61.88
2022-10-10T12:38:38.684Z,61.88
2022-10-10T12:39:38.810Z,56.25
2022-10-10T12:40:38.688Z,50.62
2022-10-10T12:41:40.435Z,50.62
2022-10-10T12:42:38.649Z,50.62
2022-10-10T12:43:38.639Z,45.00
2022-10-10T12:44:38.617Z,45.00
2022-10-10T12:45:38.607Z,45.00
2022-10-10T12:46:38.613Z,39.38
2022-10-10T12:48:03.427Z,39.38
2022-10-10T12:48:38.582Z,39.38
2022-10-10T12:49:38.581Z,39.38
2022-10-10T12:50:38.561Z,39.38
2022-10-10T12:51:38.558Z,39.38
2022-10-10T12:52:38.532Z,33.75
2022-10-10T12:53:38.532Z,33.75
2022-10-10T12:54:38.511Z,33.75
2022-10-10T12:55:38.501Z,33.75
2022-10-10T12:56:38.509Z,33.75
2022-10-10T12:57:38.504Z,33.75
2022-10-10T12:58:38.480Z,33.75
2022-10-10T12:59:38.464Z,33.75
2022-10-10T13:00:38.445Z,33.75
2022-10-10T13:01:38.725Z,33.75
2022-10-10T13:02:38.454Z,33.75
2022-10-10T13:03:38.414Z,33.75
2022-10-10T13:04:38.410Z,33.75
2022-10-10T13:05:38.389Z,39.38